Edinburgh Airport, United Kingdom

3:50 AM GMT on November 29, 2014 (GMT +0000)
Edinburgh Airport | Change Station
CLOSE
Current Station
Airport
Location: Edinburgh Airport,
Elevation: 135 ft
Nearby Weather Stations

Elev 135 ft 55.95 °N, 3.35 °W | Updated 30 minutes ago

Overcast
Overcast
48 °F
Feels Like 48 °F
N
8
Wind Variable Wind from ENE

Today
High -- | Low -- °F
--% Chance of Precip.
Yesterday
High -- | Low -- °F
Precip. -- in
8:16 AM 3:46 PM
Waxing Crescent, 47% visible
Pressure 29.86 in
Visibility 6.2 miles
Clouds Overcast 1300 ft
Dew Point 46 °F
Humidity 93%
Rainfall 0.00 in
Snow Depth Not available.
UV 0 out of 12
Pollen Not available.
Air Quality Not available.
Flu Activity Not available.
METAR EGPH 290320Z 07007KT 9999 OVC013 09/08 Q1011

More Conditions Fewer Conditions

Pressure 29.86 in
Visibility 6.2 miles
Clouds Overcast 1300 ft
Dew Point 46 °F
Humidity 93%
Rainfall 0.00 in
Snow Depth Not available.
UV 0 out of 12
Pollen Not available.
Air Quality Not available.
Flu Activity Not available.
METAR EGPH 290320Z 07007KT 9999 OVC013 09/08 Q1011

More Conditions Fewer Conditions

10-Day Weather Forecast

Almanac

Astronomy

Nov. 29, 2014 Rise Set
Actual Time
Civil Twilight
Nautical Twilight
Astronomical Twilight
Moon
Length of Visible Light
Length of Day
Tomorrow will be .
, % of the Moon is Illuminated

Today's Extremes

Country Highs Country Lows

Community

WunderPhotos

Upload Photos

1,774,389 photos uploaded!

WunderBlogs® & News

Nearby

Air Quality

  Air Quality AQ Index Pollutant
Not available.

Snow Depth

Station Depth Elevation

Earthquake Activity

City Distance Mag. Time & Date
Minimum magnitude displayed is 2.5.

Coastal Water Temperatures

Place Temperature

Nearby Weather Stations